sensor_id;sensor_type;location;lat;lon;timestamp;P1;durP1;ratioP1;P2;durP2;ratioP2
47089;SDS011;32840;52.516;13.294;2023-12-14T00:01:53;19.83;;;11.73;;
47089;SDS011;32840;52.516;13.294;2023-12-14T00:04:40;22.23;;;11.55;;
47089;SDS011;32840;52.516;13.294;2023-12-14T00:07:26;18.35;;;11.02;;
47089;SDS011;32840;52.516;13.294;2023-12-14T00:10:12;19.50;;;11.63;;
47089;SDS011;32840;52.516;13.294;2023-12-14T00:12:57;19.73;;;10.45;;
47089;SDS011;32840;52.516;13.294;2023-12-14T00:15:43;23.35;;;11.30;;
47089;SDS011;32840;52.516;13.294;2023-12-14T00:18:28;21.50;;;11.68;;
47089;SDS011;32840;52.516;13.294;2023-12-14T00:21:14;19.98;;;11.40;;
47089;SDS011;32840;52.516;13.294;2023-12-14T00:24:03;21.30;;;11.95;;
47089;SDS011;32840;52.516;13.294;2023-12-14T00:26:51;17.73;;;10.43;;
47089;SDS011;32840;52.516;13.294;2023-12-14T00:29:38;21.40;;;12.25;;
47089;SDS011;32840;52.516;13.294;2023-12-14T00:32:25;23.10;;;11.45;;
47089;SDS011;32840;52.516;13.294;2023-12-14T00:35:10;18.88;;;11.32;;
47089;SDS011;32840;52.516;13.294;2023-12-14T00:37:57;20.05;;;11.60;;
47089;SDS011;32840;52.516;13.294;2023-12-14T00:40:43;22.90;;;11.35;;
47089;SDS011;32840;52.516;13.294;2023-12-14T00:43:29;21.55;;;10.93;;
47089;SDS011;32840;52.516;13.294;2023-12-14T00:46:14;21.92;;;11.63;;
47089;SDS011;32840;52.516;13.294;2023-12-14T00:48:59;21.40;;;11.77;;
47089;SDS011;32840;52.516;13.294;2023-12-14T00:51:44;20.48;;;11.32;;
47089;SDS011;32840;52.516;13.294;2023-12-14T00:54:30;20.73;;;11.02;;
47089;SDS011;32840;52.516;13.294;2023-12-14T00:57:15;20.02;;;11.15;;
47089;SDS011;32840;52.516;13.294;2023-12-14T01:00:00;21.00;;;11.55;;
47089;SDS011;32840;52.516;13.294;2023-12-14T01:02:45;21.27;;;11.85;;
47089;SDS011;32840;52.516;13.294;2023-12-14T01:05:32;17.15;;;10.93;;
47089;SDS011;32840;52.516;13.294;2023-12-14T01:08:21;20.73;;;11.60;;
47089;SDS011;32840;52.516;13.294;2023-12-14T01:11:05;21.83;;;11.13;;
47089;SDS011;32840;52.516;13.294;2023-12-14T01:13:51;20.70;;;11.57;;
47089;SDS011;32840;52.516;13.294;2023-12-14T01:16:40;18.73;;;11.35;;
47089;SDS011;32840;52.516;13.294;2023-12-14T01:19:25;18.85;;;10.73;;
47089;SDS011;32840;52.516;13.294;2023-12-14T01:22:10;18.45;;;10.63;;
47089;SDS011;32840;52.516;13.294;2023-12-14T01:24:55;16.50;;;10.25;;
47089;SDS011;32840;52.516;13.294;2023-12-14T01:27:41;17.58;;;10.80;;
47089;SDS011;32840;52.516;13.294;2023-12-14T01:30:26;19.48;;;10.00;;
47089;SDS011;32840;52.516;13.294;2023-12-14T01:33:11;17.48;;;10.75;;
47089;SDS011;32840;52.516;13.294;2023-12-14T01:35:57;17.33;;;9.48;;
47089;SDS011;32840;52.516;13.294;2023-12-14T01:38:42;16.50;;;8.52;;
47089;SDS011;32840;52.516;13.294;2023-12-14T01:41:27;15.13;;;8.00;;
47089;SDS011;32840;52.516;13.294;2023-12-14T01:44:12;13.32;;;8.50;;
47089;SDS011;32840;52.516;13.294;2023-12-14T01:46:57;14.18;;;8.02;;
47089;SDS011;32840;52.516;13.294;2023-12-14T01:49:42;14.07;;;8.73;;
47089;SDS011;32840;52.516;13.294;2023-12-14T01:52:27;18.13;;;9.93;;
47089;SDS011;32840;52.516;13.294;2023-12-14T01:55:13;16.80;;;9.85;;
47089;SDS011;32840;52.516;13.294;2023-12-14T01:57:59;16.17;;;8.68;;
47089;SDS011;32840;52.516;13.294;2023-12-14T02:03:54;11.20;;;7.60;;
47089;SDS011;32840;52.516;13.294;2023-12-14T02:06:40;15.15;;;8.70;;
47089;SDS011;32840;52.516;13.294;2023-12-14T02:09:25;15.20;;;8.13;;
47089;SDS011;32840;52.516;13.294;2023-12-14T02:12:10;14.32;;;7.47;;
47089;SDS011;32840;52.516;13.294;2023-12-14T02:14:56;14.98;;;8.43;;
47089;SDS011;32840;52.516;13.294;2023-12-14T02:17:41;16.52;;;9.65;;
47089;SDS011;32840;52.516;13.294;2023-12-14T02:20:26;13.02;;;8.82;;
47089;SDS011;32840;52.516;13.294;2023-12-14T02:23:11;15.20;;;9.57;;
47089;SDS011;32840;52.516;13.294;2023-12-14T02:25:56;13.93;;;8.75;;
47089;SDS011;32840;52.516;13.294;2023-12-14T02:28:41;15.27;;;8.45;;
47089;SDS011;32840;52.516;13.294;2023-12-14T02:31:26;15.30;;;8.95;;
47089;SDS011;32840;52.516;13.294;2023-12-14T02:34:12;18.58;;;9.88;;
47089;SDS011;32840;52.516;13.294;2023-12-14T02:36:57;15.25;;;8.75;;
47089;SDS011;32840;52.516;13.294;2023-12-14T02:39:42;16.00;;;9.20;;
47089;SDS011;32840;52.516;13.294;2023-12-14T02:42:27;18.33;;;10.05;;
47089;SDS011;32840;52.516;13.294;2023-12-14T02:45:13;15.57;;;10.13;;
47089;SDS011;32840;52.516;13.294;2023-12-14T02:47:58;18.05;;;9.75;;
47089;SDS011;32840;52.516;13.294;2023-12-14T02:50:43;17.02;;;9.82;;
47089;SDS011;32840;52.516;13.294;2023-12-14T02:53:29;17.38;;;10.23;;
47089;SDS011;32840;52.516;13.294;2023-12-14T02:56:13;19.88;;;9.70;;
47089;SDS011;32840;52.516;13.294;2023-12-14T02:58:58;17.95;;;9.73;;
47089;SDS011;32840;52.516;13.294;2023-12-14T03:01:43;15.10;;;9.15;;
47089;SDS011;32840;52.516;13.294;2023-12-14T03:04:29;18.15;;;9.68;;
47089;SDS011;32840;52.516;13.294;2023-12-14T03:07:13;16.63;;;9.82;;
47089;SDS011;32840;52.516;13.294;2023-12-14T03:09:58;19.38;;;11.32;;
47089;SDS011;32840;52.516;13.294;2023-12-14T03:12:43;17.45;;;9.32;;
47089;SDS011;32840;52.516;13.294;2023-12-14T03:15:28;17.80;;;10.30;;
47089;SDS011;32840;52.516;13.294;2023-12-14T03:18:16;16.17;;;10.43;;
47089;SDS011;32840;52.516;13.294;2023-12-14T03:21:01;22.95;;;11.07;;
47089;SDS011;32840;52.516;13.294;2023-12-14T03:23:49;18.02;;;10.65;;
47089;SDS011;32840;52.516;13.294;2023-12-14T03:26:34;17.40;;;10.77;;
47089;SDS011;32840;52.516;13.294;2023-12-14T03:29:19;17.77;;;10.32;;
47089;SDS011;32840;52.516;13.294;2023-12-14T03:32:06;18.08;;;10.73;;
47089;SDS011;32840;52.516;13.294;2023-12-14T03:34:53;19.27;;;10.73;;
47089;SDS011;32840;52.516;13.294;2023-12-14T03:37:42;16.77;;;10.35;;
47089;SDS011;32840;52.516;13.294;2023-12-14T03:40:27;19.05;;;11.32;;
47089;SDS011;32840;52.516;13.294;2023-12-14T03:43:13;18.00;;;10.90;;
47089;SDS011;32840;52.516;13.294;2023-12-14T03:45:59;17.15;;;10.60;;
47089;SDS011;32840;52.516;13.294;2023-12-14T03:48:44;19.50;;;10.55;;
47089;SDS011;32840;52.516;13.294;2023-12-14T03:51:30;16.10;;;10.02;;
47089;SDS011;32840;52.516;13.294;2023-12-14T03:54:17;18.45;;;10.88;;
47089;SDS011;32840;52.516;13.294;2023-12-14T03:57:02;17.73;;;10.60;;
47089;SDS011;32840;52.516;13.294;2023-12-14T03:59:48;14.38;;;9.52;;
47089;SDS011;32840;52.516;13.294;2023-12-14T04:02:34;14.82;;;8.98;;
47089;SDS011;32840;52.516;13.294;2023-12-14T04:05:26;14.05;;;8.85;;
47089;SDS011;32840;52.516;13.294;2023-12-14T04:08:11;14.18;;;8.55;;
47089;SDS011;32840;52.516;13.294;2023-12-14T04:10:57;14.35;;;8.60;;
47089;SDS011;32840;52.516;13.294;2023-12-14T04:13:43;12.75;;;8.52;;
47089;SDS011;32840;52.516;13.294;2023-12-14T04:16:29;15.23;;;8.80;;
47089;SDS011;32840;52.516;13.294;2023-12-14T04:19:20;14.10;;;7.60;;
47089;SDS011;32840;52.516;13.294;2023-12-14T04:22:06;15.10;;;8.88;;
47089;SDS011;32840;52.516;13.294;2023-12-14T04:24:52;14.82;;;8.45;;
47089;SDS011;32840;52.516;13.294;2023-12-14T04:27:36;13.88;;;8.15;;
47089;SDS011;32840;52.516;13.294;2023-12-14T04:30:24;13.65;;;8.73;;
47089;SDS011;32840;52.516;13.294;2023-12-14T04:33:08;14.75;;;8.98;;
47089;SDS011;32840;52.516;13.294;2023-12-14T04:35:53;14.00;;;8.13;;
47089;SDS011;32840;52.516;13.294;2023-12-14T04:38:38;15.05;;;8.75;;
47089;SDS011;32840;52.516;13.294;2023-12-14T04:41:24;14.38;;;9.23;;
47089;SDS011;32840;52.516;13.294;2023-12-14T04:44:10;15.98;;;9.20;;
47089;SDS011;32840;52.516;13.294;2023-12-14T04:46:56;15.85;;;8.88;;
47089;SDS011;32840;52.516;13.294;2023-12-14T04:49:44;16.67;;;9.68;;
47089;SDS011;32840;52.516;13.294;2023-12-14T04:52:29;21.02;;;11.23;;
47089;SDS011;32840;52.516;13.294;2023-12-14T04:55:14;12.82;;;8.32;;
47089;SDS011;32840;52.516;13.294;2023-12-14T04:58:01;17.65;;;9.85;;
47089;SDS011;32840;52.516;13.294;2023-12-14T05:00:49;13.85;;;9.00;;
47089;SDS011;32840;52.516;13.294;2023-12-14T05:03:34;17.52;;;9.57;;
47089;SDS011;32840;52.516;13.294;2023-12-14T05:06:19;17.55;;;9.77;;
47089;SDS011;32840;52.516;13.294;2023-12-14T05:09:05;19.00;;;9.68;;
47089;SDS011;32840;52.516;13.294;2023-12-14T05:11:50;15.25;;;9.60;;
47089;SDS011;32840;52.516;13.294;2023-12-14T05:14:37;17.67;;;9.68;;
47089;SDS011;32840;52.516;13.294;2023-12-14T05:17:23;15.05;;;9.48;;
47089;SDS011;32840;52.516;13.294;2023-12-14T05:20:09;18.38;;;11.43;;
47089;SDS011;32840;52.516;13.294;2023-12-14T05:22:54;17.58;;;9.73;;
47089;SDS011;32840;52.516;13.294;2023-12-14T05:25:41;19.65;;;12.07;;
47089;SDS011;32840;52.516;13.294;2023-12-14T05:28:29;21.00;;;12.27;;
47089;SDS011;32840;52.516;13.294;2023-12-14T05:31:13;16.42;;;10.00;;
47089;SDS011;32840;52.516;13.294;2023-12-14T05:34:04;21.63;;;10.98;;
47089;SDS011;32840;52.516;13.294;2023-12-14T05:36:49;15.93;;;9.82;;
47089;SDS011;32840;52.516;13.294;2023-12-14T05:39:34;17.88;;;9.50;;
47089;SDS011;32840;52.516;13.294;2023-12-14T05:42:21;17.00;;;10.38;;
47089;SDS011;32840;52.516;13.294;2023-12-14T05:45:07;17.73;;;10.68;;
47089;SDS011;32840;52.516;13.294;2023-12-14T05:47:55;19.00;;;10.40;;
47089;SDS011;32840;52.516;13.294;2023-12-14T05:50:41;17.23;;;10.95;;
47089;SDS011;32840;52.516;13.294;2023-12-14T05:53:26;15.68;;;9.52;;
47089;SDS011;32840;52.516;13.294;2023-12-14T05:56:11;14.90;;;9.90;;
47089;SDS011;32840;52.516;13.294;2023-12-14T05:58:56;16.92;;;10.65;;
47089;SDS011;32840;52.516;13.294;2023-12-14T06:01:44;17.92;;;10.10;;
47089;SDS011;32840;52.516;13.294;2023-12-14T06:04:31;15.43;;;9.68;;
47089;SDS011;32840;52.516;13.294;2023-12-14T06:07:16;16.38;;;10.52;;
47089;SDS011;32840;52.516;13.294;2023-12-14T06:10:02;15.55;;;9.18;;
47089;SDS011;32840;52.516;13.294;2023-12-14T06:12:47;14.75;;;9.48;;
47089;SDS011;32840;52.516;13.294;2023-12-14T06:15:32;15.02;;;9.38;;
47089;SDS011;32840;52.516;13.294;2023-12-14T06:18:18;12.25;;;8.38;;
47089;SDS011;32840;52.516;13.294;2023-12-14T06:21:14;12.27;;;8.73;;
47089;SDS011;32840;52.516;13.294;2023-12-14T06:23:59;15.45;;;9.30;;
47089;SDS011;32840;52.516;13.294;2023-12-14T06:26:44;13.90;;;8.18;;
47089;SDS011;32840;52.516;13.294;2023-12-14T06:29:29;12.80;;;8.88;;
47089;SDS011;32840;52.516;13.294;2023-12-14T06:32:16;13.68;;;8.35;;
47089;SDS011;32840;52.516;13.294;2023-12-14T06:35:02;17.10;;;9.50;;
47089;SDS011;32840;52.516;13.294;2023-12-14T06:37:49;14.00;;;8.82;;
47089;SDS011;32840;52.516;13.294;2023-12-14T06:40:34;17.50;;;11.10;;
47089;SDS011;32840;52.516;13.294;2023-12-14T06:43:19;16.17;;;10.40;;
47089;SDS011;32840;52.516;13.294;2023-12-14T06:46:04;16.52;;;10.48;;
47089;SDS011;32840;52.516;13.294;2023-12-14T06:48:50;16.08;;;9.65;;
47089;SDS011;32840;52.516;13.294;2023-12-14T06:51:35;21.73;;;13.63;;
47089;SDS011;32840;52.516;13.294;2023-12-14T06:54:20;15.10;;;10.95;;
47089;SDS011;32840;52.516;13.294;2023-12-14T06:57:05;11.70;;;7.93;;
47089;SDS011;32840;52.516;13.294;2023-12-14T06:59:51;11.70;;;7.88;;
47089;SDS011;32840;52.516;13.294;2023-12-14T07:02:36;13.07;;;8.45;;
47089;SDS011;32840;52.516;13.294;2023-12-14T07:05:22;15.32;;;8.13;;
47089;SDS011;32840;52.516;13.294;2023-12-14T07:08:08;12.63;;;8.38;;
47089;SDS011;32840;52.516;13.294;2023-12-14T07:10:53;10.80;;;7.07;;
47089;SDS011;32840;52.516;13.294;2023-12-14T07:13:38;11.60;;;7.93;;
47089;SDS011;32840;52.516;13.294;2023-12-14T07:16:23;10.25;;;6.85;;
47089;SDS011;32840;52.516;13.294;2023-12-14T07:19:08;11.25;;;7.00;;
47089;SDS011;32840;52.516;13.294;2023-12-14T07:21:55;11.82;;;8.27;;
47089;SDS011;32840;52.516;13.294;2023-12-14T07:24:40;12.50;;;8.05;;
47089;SDS011;32840;52.516;13.294;2023-12-14T07:27:27;11.35;;;7.75;;
47089;SDS011;32840;52.516;13.294;2023-12-14T07:30:12;13.38;;;8.85;;
47089;SDS011;32840;52.516;13.294;2023-12-14T07:32:57;13.48;;;8.95;;
47089;SDS011;32840;52.516;13.294;2023-12-14T07:35:43;14.35;;;9.30;;
47089;SDS011;32840;52.516;13.294;2023-12-14T07:38:29;14.57;;;10.02;;
47089;SDS011;32840;52.516;13.294;2023-12-14T07:41:14;14.63;;;9.57;;
47089;SDS011;32840;52.516;13.294;2023-12-14T07:43:59;16.33;;;9.80;;
47089;SDS011;32840;52.516;13.294;2023-12-14T07:46:44;15.90;;;9.52;;
47089;SDS011;32840;52.516;13.294;2023-12-14T07:49:31;17.20;;;10.30;;
47089;SDS011;32840;52.516;13.294;2023-12-14T07:52:17;16.50;;;10.70;;
47089;SDS011;32840;52.516;13.294;2023-12-14T07:55:03;16.75;;;10.35;;
47089;SDS011;32840;52.516;13.294;2023-12-14T07:57:49;16.75;;;10.50;;
47089;SDS011;32840;52.516;13.294;2023-12-14T08:00:34;17.48;;;10.75;;
47089;SDS011;32840;52.516;13.294;2023-12-14T08:03:22;14.70;;;10.50;;
47089;SDS011;32840;52.516;13.294;2023-12-14T08:06:08;18.63;;;11.00;;
47089;SDS011;32840;52.516;13.294;2023-12-14T08:08:54;19.25;;;12.25;;
47089;SDS011;32840;52.516;13.294;2023-12-14T08:11:39;17.67;;;11.68;;
47089;SDS011;32840;52.516;13.294;2023-12-14T08:14:24;20.25;;;12.13;;
47089;SDS011;32840;52.516;13.294;2023-12-14T08:17:09;17.80;;;12.30;;
47089;SDS011;32840;52.516;13.294;2023-12-14T08:19:55;22.10;;;13.30;;
47089;SDS011;32840;52.516;13.294;2023-12-14T08:22:41;20.30;;;12.23;;
47089;SDS011;32840;52.516;13.294;2023-12-14T08:25:32;18.58;;;12.10;;
47089;SDS011;32840;52.516;13.294;2023-12-14T08:28:17;19.05;;;11.65;;
47089;SDS011;32840;52.516;13.294;2023-12-14T08:31:03;24.30;;;16.45;;
47089;SDS011;32840;52.516;13.294;2023-12-14T08:33:48;18.75;;;11.70;;
47089;SDS011;32840;52.516;13.294;2023-12-14T08:36:33;18.77;;;12.65;;
47089;SDS011;32840;52.516;13.294;2023-12-14T08:39:18;20.75;;;12.30;;
47089;SDS011;32840;52.516;13.294;2023-12-14T08:42:03;18.70;;;12.25;;
47089;SDS011;32840;52.516;13.294;2023-12-14T08:44:51;21.75;;;12.35;;
47089;SDS011;32840;52.516;13.294;2023-12-14T08:47:36;24.67;;;12.98;;
47089;SDS011;32840;52.516;13.294;2023-12-14T08:50:22;25.90;;;13.70;;
47089;SDS011;32840;52.516;13.294;2023-12-14T08:53:10;26.40;;;13.95;;
47089;SDS011;32840;52.516;13.294;2023-12-14T08:55:56;20.15;;;13.07;;
47089;SDS011;32840;52.516;13.294;2023-12-14T08:58:41;21.77;;;12.80;;
47089;SDS011;32840;52.516;13.294;2023-12-14T09:01:26;22.05;;;12.77;;
47089;SDS011;32840;52.516;13.294;2023-12-14T09:04:11;19.33;;;12.13;;
47089;SDS011;32840;52.516;13.294;2023-12-14T09:06:57;23.10;;;13.85;;
47089;SDS011;32840;52.516;13.294;2023-12-14T09:09:43;23.50;;;14.10;;
47089;SDS011;32840;52.516;13.294;2023-12-14T09:12:29;25.42;;;14.82;;
47089;SDS011;32840;52.516;13.294;2023-12-14T09:15:14;22.25;;;13.82;;
47089;SDS011;32840;52.516;13.294;2023-12-14T09:18:00;21.85;;;14.02;;
47089;SDS011;32840;52.516;13.294;2023-12-14T09:20:45;22.85;;;13.45;;
47089;SDS011;32840;52.516;13.294;2023-12-14T09:23:30;23.75;;;14.05;;
47089;SDS011;32840;52.516;13.294;2023-12-14T09:26:15;23.33;;;13.70;;
47089;SDS011;32840;52.516;13.294;2023-12-14T09:29:01;23.58;;;14.38;;
47089;SDS011;32840;52.516;13.294;2023-12-14T09:31:46;26.08;;;14.60;;
47089;SDS011;32840;52.516;13.294;2023-12-14T09:34:34;23.27;;;14.40;;
47089;SDS011;32840;52.516;13.294;2023-12-14T09:37:19;21.63;;;13.60;;
47089;SDS011;32840;52.516;13.294;2023-12-14T09:40:06;22.55;;;13.70;;
47089;SDS011;32840;52.516;13.294;2023-12-14T09:42:53;24.98;;;15.45;;
47089;SDS011;32840;52.516;13.294;2023-12-14T09:45:40;20.98;;;12.35;;
47089;SDS011;32840;52.516;13.294;2023-12-14T09:48:28;31.00;;;18.55;;
47089;SDS011;32840;52.516;13.294;2023-12-14T09:51:14;23.75;;;13.02;;
47089;SDS011;32840;52.516;13.294;2023-12-14T09:54:00;19.92;;;12.80;;
47089;SDS011;32840;52.516;13.294;2023-12-14T09:56:46;20.40;;;12.23;;
47089;SDS011;32840;52.516;13.294;2023-12-14T09:59:31;25.00;;;13.98;;
47089;SDS011;32840;52.516;13.294;2023-12-14T10:02:16;21.80;;;12.13;;
47089;SDS011;32840;52.516;13.294;2023-12-14T10:05:03;18.60;;;11.23;;
47089;SDS011;32840;52.516;13.294;2023-12-14T10:07:54;20.00;;;11.57;;
47089;SDS011;32840;52.516;13.294;2023-12-14T10:10:40;22.00;;;12.77;;
47089;SDS011;32840;52.516;13.294;2023-12-14T10:13:35;19.70;;;12.13;;
47089;SDS011;32840;52.516;13.294;2023-12-14T10:16:32;22.13;;;13.30;;
47089;SDS011;32840;52.516;13.294;2023-12-14T10:19:18;19.50;;;12.50;;
47089;SDS011;32840;52.516;13.294;2023-12-14T10:22:03;34.15;;;17.67;;
47089;SDS011;32840;52.516;13.294;2023-12-14T10:24:49;22.92;;;13.73;;
47089;SDS011;32840;52.516;13.294;2023-12-14T10:27:34;32.20;;;18.08;;
47089;SDS011;32840;52.516;13.294;2023-12-14T10:30:19;19.02;;;12.30;;
47089;SDS011;32840;52.516;13.294;2023-12-14T10:33:03;22.88;;;13.65;;
47089;SDS011;32840;52.516;13.294;2023-12-14T10:35:48;19.40;;;12.85;;
47089;SDS011;32840;52.516;13.294;2023-12-14T10:38:34;22.67;;;13.48;;
47089;SDS011;32840;52.516;13.294;2023-12-14T10:41:22;22.63;;;14.48;;
47089;SDS011;32840;52.516;13.294;2023-12-14T10:44:10;22.15;;;12.80;;
47089;SDS011;32840;52.516;13.294;2023-12-14T10:46:57;21.90;;;13.80;;
47089;SDS011;32840;52.516;13.294;2023-12-14T10:49:42;21.33;;;13.32;;
47089;SDS011;32840;52.516;13.294;2023-12-14T10:52:33;20.98;;;13.35;;
47089;SDS011;32840;52.516;13.294;2023-12-14T10:55:25;57.83;;;35.10;;
47089;SDS011;32840;52.516;13.294;2023-12-14T10:58:14;34.70;;;18.55;;
47089;SDS011;32840;52.516;13.294;2023-12-14T11:01:00;32.88;;;17.55;;
47089;SDS011;32840;52.516;13.294;2023-12-14T11:03:50;34.78;;;21.05;;
47089;SDS011;32840;52.516;13.294;2023-12-14T11:06:40;26.35;;;15.48;;
47089;SDS011;32840;52.516;13.294;2023-12-14T11:09:26;30.58;;;17.17;;
47089;SDS011;32840;52.516;13.294;2023-12-14T11:12:19;22.80;;;14.30;;
47089;SDS011;32840;52.516;13.294;2023-12-14T11:15:07;24.17;;;13.90;;
47089;SDS011;32840;52.516;13.294;2023-12-14T11:20:57;23.20;;;15.10;;
47089;SDS011;32840;52.516;13.294;2023-12-14T11:23:48;30.42;;;16.40;;
47089;SDS011;32840;52.516;13.294;2023-12-14T11:26:35;20.38;;;13.13;;
47089;SDS011;32840;52.516;13.294;2023-12-14T11:29:27;23.23;;;13.52;;
47089;SDS011;32840;52.516;13.294;2023-12-14T11:32:12;20.75;;;13.02;;
47089;SDS011;32840;52.516;13.294;2023-12-14T11:34:57;23.83;;;14.65;;
47089;SDS011;32840;52.516;13.294;2023-12-14T11:37:43;20.73;;;13.50;;
47089;SDS011;32840;52.516;13.294;2023-12-14T11:40:28;22.67;;;13.00;;
47089;SDS011;32840;52.516;13.294;2023-12-14T11:43:14;19.42;;;12.27;;
47089;SDS011;32840;52.516;13.294;2023-12-14T11:45:59;25.75;;;11.95;;
47089;SDS011;32840;52.516;13.294;2023-12-14T11:48:44;24.38;;;12.50;;
47089;SDS011;32840;52.516;13.294;2023-12-14T11:51:35;20.67;;;11.55;;
47089;SDS011;32840;52.516;13.294;2023-12-14T11:54:21;17.77;;;11.60;;
47089;SDS011;32840;52.516;13.294;2023-12-14T11:57:06;22.30;;;13.50;;
47089;SDS011;32840;52.516;13.294;2023-12-14T11:59:53;28.83;;;13.73;;
47089;SDS011;32840;52.516;13.294;2023-12-14T12:02:38;23.92;;;14.65;;
47089;SDS011;32840;52.516;13.294;2023-12-14T12:05:38;23.77;;;12.65;;
47089;SDS011;32840;52.516;13.294;2023-12-14T12:08:24;24.23;;;14.05;;
47089;SDS011;32840;52.516;13.294;2023-12-14T12:11:15;19.77;;;12.63;;
47089;SDS011;32840;52.516;13.294;2023-12-14T12:14:05;34.00;;;20.27;;
47089;SDS011;32840;52.516;13.294;2023-12-14T12:16:50;20.58;;;12.02;;
47089;SDS011;32840;52.516;13.294;2023-12-14T12:19:40;19.17;;;11.60;;
47089;SDS011;32840;52.516;13.294;2023-12-14T12:22:27;24.17;;;12.05;;
47089;SDS011;32840;52.516;13.294;2023-12-14T12:25:11;19.08;;;11.93;;
47089;SDS011;32840;52.516;13.294;2023-12-14T12:27:58;22.67;;;12.23;;
47089;SDS011;32840;52.516;13.294;2023-12-14T12:30:45;21.02;;;12.38;;
47089;SDS011;32840;52.516;13.294;2023-12-14T12:33:31;19.33;;;11.43;;
47089;SDS011;32840;52.516;13.294;2023-12-14T12:39:06;21.17;;;12.10;;
47089;SDS011;32840;52.516;13.294;2023-12-14T12:41:52;27.52;;;14.95;;
47089;SDS011;32840;52.516;13.294;2023-12-14T12:44:37;23.65;;;13.48;;
47089;SDS011;32840;52.516;13.294;2023-12-14T12:47:22;23.65;;;12.82;;
47089;SDS011;32840;52.516;13.294;2023-12-14T12:50:07;23.50;;;13.43;;
47089;SDS011;32840;52.516;13.294;2023-12-14T12:52:54;17.70;;;11.40;;
47089;SDS011;32840;52.516;13.294;2023-12-14T12:55:39;35.10;;;19.33;;
47089;SDS011;32840;52.516;13.294;2023-12-14T12:58:23;19.13;;;12.35;;
47089;SDS011;32840;52.516;13.294;2023-12-14T13:01:08;34.88;;;16.13;;
47089;SDS011;32840;52.516;13.294;2023-12-14T13:03:54;28.88;;;15.10;;
47089;SDS011;32840;52.516;13.294;2023-12-14T13:06:41;18.25;;;12.27;;
47089;SDS011;32840;52.516;13.294;2023-12-14T13:09:25;24.85;;;14.10;;
47089;SDS011;32840;52.516;13.294;2023-12-14T13:12:10;28.77;;;16.33;;
47089;SDS011;32840;52.516;13.294;2023-12-14T13:14:55;24.80;;;14.32;;
47089;SDS011;32840;52.516;13.294;2023-12-14T13:17:41;22.58;;;13.43;;
47089;SDS011;32840;52.516;13.294;2023-12-14T13:20:28;23.30;;;13.23;;
47089;SDS011;32840;52.516;13.294;2023-12-14T13:23:14;23.45;;;13.60;;
47089;SDS011;32840;52.516;13.294;2023-12-14T13:25:59;21.55;;;14.63;;
47089;SDS011;32840;52.516;13.294;2023-12-14T13:28:45;20.58;;;13.30;;
47089;SDS011;32840;52.516;13.294;2023-12-14T13:31:30;22.33;;;13.80;;
47089;SDS011;32840;52.516;13.294;2023-12-14T13:34:15;22.27;;;13.93;;
47089;SDS011;32840;52.516;13.294;2023-12-14T13:37:00;20.15;;;12.63;;
47089;SDS011;32840;52.516;13.294;2023-12-14T13:39:44;22.02;;;13.38;;
47089;SDS011;32840;52.516;13.294;2023-12-14T13:42:29;23.10;;;14.20;;
47089;SDS011;32840;52.516;13.294;2023-12-14T13:45:15;24.23;;;14.85;;
47089;SDS011;32840;52.516;13.294;2023-12-14T13:48:00;20.40;;;12.85;;
47089;SDS011;32840;52.516;13.294;2023-12-14T13:50:45;24.05;;;12.90;;
47089;SDS011;32840;52.516;13.294;2023-12-14T13:53:30;23.85;;;14.55;;
47089;SDS011;32840;52.516;13.294;2023-12-14T13:56:15;21.25;;;13.27;;
47089;SDS011;32840;52.516;13.294;2023-12-14T13:59:00;20.98;;;13.13;;
47089;SDS011;32840;52.516;13.294;2023-12-14T14:01:45;22.38;;;13.52;;
47089;SDS011;32840;52.516;13.294;2023-12-14T14:04:34;23.90;;;15.75;;
47089;SDS011;32840;52.516;13.294;2023-12-14T14:07:19;21.67;;;14.25;;
47089;SDS011;32840;52.516;13.294;2023-12-14T14:10:04;25.40;;;17.15;;
47089;SDS011;32840;52.516;13.294;2023-12-14T14:12:49;23.25;;;14.10;;
47089;SDS011;32840;52.516;13.294;2023-12-14T14:15:34;18.95;;;12.90;;
47089;SDS011;32840;52.516;13.294;2023-12-14T14:18:20;26.25;;;13.40;;
47089;SDS011;32840;52.516;13.294;2023-12-14T14:21:05;20.38;;;13.50;;
47089;SDS011;32840;52.516;13.294;2023-12-14T14:23:52;21.20;;;12.70;;
47089;SDS011;32840;52.516;13.294;2023-12-14T14:26:36;18.85;;;11.48;;
47089;SDS011;32840;52.516;13.294;2023-12-14T14:29:23;20.40;;;12.75;;
47089;SDS011;32840;52.516;13.294;2023-12-14T14:32:07;22.90;;;14.18;;
47089;SDS011;32840;52.516;13.294;2023-12-14T14:34:54;29.20;;;16.10;;
47089;SDS011;32840;52.516;13.294;2023-12-14T14:37:41;21.50;;;13.20;;
47089;SDS011;32840;52.516;13.294;2023-12-14T14:40:30;20.05;;;13.00;;
47089;SDS011;32840;52.516;13.294;2023-12-14T14:43:15;18.60;;;12.13;;
47089;SDS011;32840;52.516;13.294;2023-12-14T14:46:00;20.65;;;13.05;;
47089;SDS011;32840;52.516;13.294;2023-12-14T14:48:45;19.92;;;12.35;;
47089;SDS011;32840;52.516;13.294;2023-12-14T14:51:31;19.15;;;12.32;;
47089;SDS011;32840;52.516;13.294;2023-12-14T14:54:16;20.05;;;13.13;;
47089;SDS011;32840;52.516;13.294;2023-12-14T14:57:02;20.45;;;12.65;;
47089;SDS011;32840;52.516;13.294;2023-12-14T14:59:49;22.95;;;12.57;;
47089;SDS011;32840;52.516;13.294;2023-12-14T15:02:35;19.92;;;12.43;;
47089;SDS011;32840;52.516;13.294;2023-12-14T15:05:19;20.10;;;12.18;;
47089;SDS011;32840;52.516;13.294;2023-12-14T15:08:04;20.52;;;11.57;;
47089;SDS011;32840;52.516;13.294;2023-12-14T15:10:52;20.25;;;12.80;;
47089;SDS011;32840;52.516;13.294;2023-12-14T15:13:39;22.02;;;13.90;;
47089;SDS011;32840;52.516;13.294;2023-12-14T15:16:25;22.63;;;13.60;;
47089;SDS011;32840;52.516;13.294;2023-12-14T15:19:10;22.88;;;14.07;;
47089;SDS011;32840;52.516;13.294;2023-12-14T15:21:55;20.60;;;14.23;;
47089;SDS011;32840;52.516;13.294;2023-12-14T15:24:40;20.67;;;12.68;;
47089;SDS011;32840;52.516;13.294;2023-12-14T15:27:28;22.63;;;13.07;;
47089;SDS011;32840;52.516;13.294;2023-12-14T15:30:15;21.20;;;13.20;;
47089;SDS011;32840;52.516;13.294;2023-12-14T15:33:01;22.70;;;13.65;;
47089;SDS011;32840;52.516;13.294;2023-12-14T15:35:46;33.42;;;20.27;;
47089;SDS011;32840;52.516;13.294;2023-12-14T15:38:31;19.65;;;12.18;;
47089;SDS011;32840;52.516;13.294;2023-12-14T15:41:16;22.35;;;13.07;;
47089;SDS011;32840;52.516;13.294;2023-12-14T15:44:01;21.65;;;12.98;;
47089;SDS011;32840;52.516;13.294;2023-12-14T15:46:46;18.23;;;11.95;;
47089;SDS011;32840;52.516;13.294;2023-12-14T15:49:34;17.45;;;11.70;;
47089;SDS011;32840;52.516;13.294;2023-12-14T15:52:19;19.10;;;12.15;;
47089;SDS011;32840;52.516;13.294;2023-12-14T15:55:08;44.30;;;27.15;;
47089;SDS011;32840;52.516;13.294;2023-12-14T15:57:57;18.42;;;11.23;;
47089;SDS011;32840;52.516;13.294;2023-12-14T16:00:46;20.13;;;12.68;;
47089;SDS011;32840;52.516;13.294;2023-12-14T16:03:31;19.38;;;11.88;;
47089;SDS011;32840;52.516;13.294;2023-12-14T16:06:19;17.10;;;10.68;;
47089;SDS011;32840;52.516;13.294;2023-12-14T16:09:04;18.63;;;11.13;;
47089;SDS011;32840;52.516;13.294;2023-12-14T16:11:49;17.73;;;11.88;;